createdAt,value
2023-07-10T00:00:34.106Z,1.83
2023-07-10T00:03:36.061Z,2.22
2023-07-10T00:06:37.841Z,1.85
2023-07-10T00:09:39.951Z,1.70
2023-07-10T00:12:45.013Z,2.10
2023-07-10T00:15:46.747Z,1.88
2023-07-10T00:18:49.414Z,1.70
2023-07-10T00:21:51.214Z,1.90
2023-07-10T00:24:53.348Z,1.70
2023-07-10T00:27:58.528Z,2.10
2023-07-10T00:31:00.484Z,1.92
2023-07-10T00:34:02.912Z,2.03
2023-07-10T00:37:06.356Z,2.00
2023-07-10T00:40:20.118Z,2.22
2023-07-10T00:43:36.331Z,2.00
2023-07-10T00:49:46.553Z,1.70
2023-07-10T00:52:50.001Z,2.00
2023-07-10T00:55:54.541Z,1.65
2023-07-10T00:58:58.080Z,1.98
2023-07-10T01:02:20.525Z,2.08
2023-07-10T01:05:25.059Z,2.15
2023-07-10T01:08:27.777Z,2.03
2023-07-10T01:11:30.365Z,2.20
2023-07-10T01:14:36.827Z,2.20
2023-07-10T01:17:41.167Z,1.90
2023-07-10T01:20:47.717Z,1.90
2023-07-10T01:23:52.086Z,2.20
2023-07-10T01:26:56.855Z,2.13
2023-07-10T01:30:08.017Z,2.17
2023-07-10T01:33:16.268Z,2.40
2023-07-10T01:36:29.583Z,2.17
2023-07-10T01:39:38.044Z,2.00
2023-07-10T01:42:39.786Z,1.65
2023-07-10T01:45:43.857Z,1.98
2023-07-10T01:48:48.888Z,2.10
2023-07-10T01:51:52.027Z,1.83
2023-07-10T01:54:57.216Z,2.13
2023-07-10T01:57:59.415Z,1.92
2023-07-10T02:01:01.757Z,2.30
2023-07-10T02:04:04.645Z,2.40
2023-07-10T02:07:08.911Z,2.72
2023-07-10T02:10:12.457Z,2.17
2023-07-10T02:13:14.531Z,2.17
2023-07-10T02:16:17.132Z,2.05
2023-07-10T02:19:20.470Z,2.20
2023-07-10T02:22:22.336Z,1.95
2023-07-10T02:25:25.599Z,2.30
2023-07-10T02:28:28.669Z,2.20
2023-07-10T02:31:31.650Z,2.30
2023-07-10T02:34:33.916Z,1.90
2023-07-10T02:37:36.132Z,2.10
2023-07-10T02:40:39.277Z,2.20
2023-07-10T02:43:50.416Z,1.90
2023-07-10T02:46:53.674Z,2.20
2023-07-10T02:49:56.219Z,2.40
2023-07-10T02:52:58.759Z,2.15
2023-07-10T02:56:03.931Z,2.25
2023-07-10T02:59:07.945Z,2.30
2023-07-10T03:02:09.762Z,2.05
2023-07-10T03:05:12.217Z,2.33
2023-07-10T03:08:14.140Z,2.13
2023-07-10T03:11:18.095Z,2.40
2023-07-10T03:17:21.817Z,2.30
2023-07-10T03:20:23.932Z,2.63
2023-07-10T03:23:26.746Z,2.38
2023-07-10T03:26:29.927Z,2.97
2023-07-10T03:29:31.919Z,2.88
2023-07-10T03:32:33.916Z,2.88
2023-07-10T03:35:35.845Z,3.47
2023-07-10T03:38:37.627Z,2.78
2023-07-10T03:41:40.761Z,2.65
2023-07-10T03:44:42.616Z,2.60
2023-07-10T03:47:44.787Z,2.60
2023-07-10T03:50:47.684Z,2.60
2023-07-10T03:53:50.066Z,2.88
2023-07-10T03:56:53.139Z,2.00
2023-07-10T03:59:55.001Z,2.75
2023-07-10T04:02:57.177Z,2.35
2023-07-10T04:05:59.696Z,2.60
2023-07-10T04:09:02.053Z,2.38
2023-07-10T04:12:06.296Z,3.03
2023-07-10T04:15:09.586Z,2.45
2023-07-10T04:18:12.496Z,3.00
2023-07-10T04:21:16.894Z,2.50
2023-07-10T04:24:18.741Z,2.13
2023-07-10T04:27:21.839Z,2.60
2023-07-10T04:30:23.770Z,1.92
2023-07-10T04:33:26.348Z,2.95
2023-07-10T04:36:29.650Z,2.40
2023-07-10T04:39:33.591Z,2.40
2023-07-10T04:42:37.682Z,2.70
2023-07-10T04:45:39.931Z,2.90
2023-07-10T04:48:46.968Z,2.67
2023-07-10T04:51:49.023Z,2.45
2023-07-10T04:54:51.736Z,2.53
2023-07-10T04:57:55.490Z,2.50
2023-07-10T05:01:00.715Z,2.95
2023-07-10T05:04:04.837Z,2.60
2023-07-10T05:10:09.262Z,3.00
2023-07-10T05:13:12.376Z,2.90
2023-07-10T05:16:15.289Z,2.80
2023-07-10T05:19:18.315Z,2.63
2023-07-10T05:22:20.292Z,2.60
2023-07-10T05:25:22.596Z,2.55
2023-07-10T05:28:27.204Z,3.10
2023-07-10T05:31:29.003Z,2.65
2023-07-10T05:34:33.924Z,2.92
2023-07-10T05:37:35.728Z,2.90
2023-07-10T05:40:41.828Z,2.90
2023-07-10T05:43:47.047Z,3.20
2023-07-10T05:46:48.742Z,2.83
2023-07-10T05:49:52.761Z,2.92
2023-07-10T05:52:54.457Z,2.63
2023-07-10T05:55:58.084Z,2.85
2023-07-10T05:59:02.070Z,3.17
2023-07-10T06:02:04.321Z,3.28
2023-07-10T06:05:07.106Z,3.70
2023-07-10T06:08:10.046Z,3.78
2023-07-10T06:11:13.083Z,5.00
2023-07-10T06:14:16.246Z,5.10
2023-07-10T06:17:18.078Z,4.40
2023-07-10T06:20:19.744Z,5.25
2023-07-10T06:23:22.158Z,5.15
2023-07-10T06:26:23.908Z,5.68
2023-07-10T06:29:27.030Z,5.50
2023-07-10T06:32:29.139Z,5.68
2023-07-10T06:35:31.002Z,6.88
2023-07-10T06:38:33.168Z,5.43
2023-07-10T06:41:34.977Z,6.45
2023-07-10T06:44:38.173Z,6.68
2023-07-10T06:47:42.537Z,6.60
2023-07-10T06:50:48.117Z,7.68
2023-07-10T06:53:49.989Z,6.75
2023-07-10T06:56:52.316Z,7.90
2023-07-10T06:59:55.584Z,8.35
2023-07-10T07:02:57.688Z,7.63
2023-07-10T07:06:00.593Z,8.02
2023-07-10T07:09:04.973Z,7.90
2023-07-10T07:12:08.680Z,7.45
2023-07-10T07:15:13.812Z,8.93
2023-07-10T07:18:16.269Z,8.10
2023-07-10T07:21:18.080Z,7.68
2023-07-10T07:24:20.034Z,9.70
2023-07-10T07:27:22.233Z,9.05
2023-07-10T07:30:25.926Z,8.98
2023-07-10T07:33:28.431Z,9.73
2023-07-10T07:36:33.317Z,8.63
2023-07-10T07:39:35.105Z,9.77
2023-07-10T07:42:36.983Z,8.68
2023-07-10T07:45:40.474Z,9.07
2023-07-10T07:48:42.439Z,9.18
2023-07-10T07:51:44.666Z,9.18
2023-07-10T07:54:47.032Z,9.60
2023-07-10T07:57:48.759Z,8.32
2023-07-10T08:00:51.910Z,8.38
2023-07-10T08:03:54.231Z,8.05
2023-07-10T08:06:57.985Z,8.45
2023-07-10T08:10:01.869Z,8.38
2023-07-10T08:13:05.337Z,8.52
2023-07-10T08:16:08.632Z,7.60
2023-07-10T08:19:10.920Z,8.32
2023-07-10T08:22:12.686Z,7.95
2023-07-10T08:25:14.648Z,7.15
2023-07-10T08:28:16.363Z,7.60
2023-07-10T08:31:19.962Z,7.47
2023-07-10T08:34:22.664Z,8.32
2023-07-10T08:37:24.604Z,7.63
2023-07-10T08:40:31.791Z,7.82
2023-07-10T08:43:37.139Z,8.13
2023-07-10T08:46:40.476Z,7.93
2023-07-10T08:49:54.847Z,7.63
2023-07-10T08:53:07.047Z,7.18
2023-07-10T08:56:22.885Z,7.55
2023-07-10T08:59:47.759Z,6.85
2023-07-10T09:02:56.753Z,7.38
2023-07-10T09:05:59.147Z,7.43
2023-07-10T09:09:02.322Z,7.57
2023-07-10T09:12:11.254Z,6.97
2023-07-10T09:15:16.171Z,7.15
2023-07-10T09:18:24.765Z,6.55
2023-07-10T09:21:31.176Z,6.70
2023-07-10T09:24:33.329Z,6.63
2023-07-10T09:27:35.631Z,6.22
2023-07-10T09:30:51.328Z,6.43
2023-07-10T09:34:01.131Z,6.20
2023-07-10T09:37:06.508Z,6.18
2023-07-10T09:40:21.490Z,6.05
2023-07-10T09:43:25.330Z,5.90
2023-07-10T09:46:29.569Z,5.57
2023-07-10T09:49:57.959Z,5.30
2023-07-10T09:52:59.798Z,4.30
2023-07-10T09:56:01.748Z,4.22
2023-07-10T09:59:19.145Z,4.15
2023-07-10T10:02:23.922Z,4.20
2023-07-10T10:05:29.412Z,4.95
2023-07-10T10:08:33.748Z,4.20
2023-07-10T10:11:44.294Z,4.47
2023-07-10T10:14:52.658Z,3.92
2023-07-10T10:17:58.746Z,3.75
2023-07-10T10:21:03.694Z,3.75
2023-07-10T10:24:11.124Z,3.50
2023-07-10T10:27:23.937Z,3.60
2023-07-10T10:30:36.551Z,3.40
2023-07-10T10:33:48.428Z,3.38
2023-07-10T10:37:09.555Z,3.42
2023-07-10T10:40:23.501Z,3.28
2023-07-10T10:43:44.500Z,3.42
2023-07-10T10:46:59.342Z,3.53
2023-07-10T10:50:15.263Z,3.67
2023-07-10T10:53:36.014Z,3.67
2023-07-10T10:56:42.606Z,3.30
2023-07-10T10:59:52.962Z,3.63
2023-07-10T11:03:09.801Z,3.53
2023-07-10T11:06:32.557Z,3.92
2023-07-10T11:09:39.790Z,3.67
2023-07-10T11:12:42.470Z,3.90
2023-07-10T11:15:44.403Z,3.80
2023-07-10T11:18:47.738Z,3.35
2023-07-10T11:21:53.481Z,3.50
2023-07-10T11:24:57.297Z,3.45
2023-07-10T11:31:38.294Z,3.30
2023-07-10T11:35:19.840Z,2.72
2023-07-10T11:38:25.787Z,2.50
2023-07-10T11:41:32.813Z,3.00
2023-07-10T11:44:40.798Z,2.63
2023-07-10T11:47:46.737Z,2.50
2023-07-10T11:50:50.507Z,2.00
2023-07-10T11:54:03.252Z,1.70
2023-07-10T11:57:27.817Z,1.92
2023-07-10T12:00:31.663Z,1.85
2023-07-10T12:03:36.488Z,2.03
2023-07-10T12:06:44.314Z,1.67
2023-07-10T12:09:50.419Z,1.83
2023-07-10T12:12:54.905Z,1.80
2023-07-10T12:16:00.137Z,2.50
2023-07-10T12:19:17.573Z,2.63
2023-07-10T12:22:21.871Z,2.70
2023-07-10T12:25:23.815Z,2.53
2023-07-10T12:28:29.718Z,2.40
2023-07-10T12:31:31.626Z,2.90
2023-07-10T12:34:33.934Z,2.40
2023-07-10T12:37:36.887Z,2.45
2023-07-10T12:40:40.592Z,2.30
2023-07-10T12:43:49.470Z,2.30
2023-07-10T12:46:56.266Z,2.03
2023-07-10T12:50:00.531Z,2.10
2023-07-10T12:53:06.131Z,1.70
2023-07-10T12:56:16.505Z,2.28
2023-07-10T12:59:25.091Z,1.73
2023-07-10T13:02:28.868Z,1.73
2023-07-10T13:05:32.729Z,1.63
2023-07-10T13:11:45.023Z,1.58
2023-07-10T13:14:51.799Z,1.40
2023-07-10T13:17:56.631Z,1.35
2023-07-10T13:20:58.486Z,1.40
2023-07-10T13:24:00.335Z,1.35
2023-07-10T13:27:02.187Z,1.08
2023-07-10T13:30:16.275Z,1.00
2023-07-10T13:33:19.837Z,1.15
2023-07-10T13:36:27.832Z,1.08
2023-07-10T13:39:29.849Z,1.10
2023-07-10T13:42:32.200Z,1.23
2023-07-10T13:45:36.001Z,1.10
2023-07-10T13:51:39.851Z,1.23
2023-07-10T13:54:41.997Z,1.40
2023-07-10T13:57:44.560Z,1.20
2023-07-10T14:00:50.114Z,1.27
2023-07-10T14:03:54.907Z,1.23
2023-07-10T14:06:57.645Z,0.90
2023-07-10T14:10:00.841Z,1.30
2023-07-10T14:13:05.875Z,1.13
2023-07-10T14:16:26.942Z,1.40
2023-07-10T14:19:29.255Z,1.15
2023-07-10T14:22:33.536Z,1.30
2023-07-10T14:25:35.420Z,1.08
2023-07-10T14:28:37.207Z,1.17
2023-07-10T14:31:40.734Z,1.27
2023-07-10T14:34:43.135Z,1.25
2023-07-10T14:37:45.246Z,1.35
2023-07-10T14:40:48.002Z,1.17
2023-07-10T14:43:51.014Z,1.25
2023-07-10T14:47:06.691Z,1.00
2023-07-10T14:50:13.513Z,0.80
2023-07-10T14:53:19.274Z,0.95
2023-07-10T14:56:21.108Z,0.80
2023-07-10T14:59:22.940Z,0.80
2023-07-10T15:02:27.478Z,1.00
2023-07-10T15:05:29.657Z,0.88
2023-07-10T15:08:40.769Z,1.02
2023-07-10T15:11:43.023Z,1.02
2023-07-10T15:14:49.365Z,0.90
2023-07-10T15:17:54.998Z,0.90
2023-07-10T15:20:57.206Z,0.88
2023-07-10T15:23:59.053Z,0.80
2023-07-10T15:27:06.521Z,1.00
2023-07-10T15:30:09.826Z,27.75
2023-07-10T15:33:16.165Z,4.35
2023-07-10T15:36:20.441Z,3.20
2023-07-10T15:39:23.170Z,1.27
2023-07-10T15:42:25.765Z,1.00
2023-07-10T15:45:32.980Z,0.88
2023-07-10T15:48:43.954Z,0.88
2023-07-10T15:51:46.635Z,0.75
2023-07-10T15:54:52.411Z,0.80
2023-07-10T15:57:55.856Z,0.80
2023-07-10T16:00:58.764Z,1.05
2023-07-10T16:04:05.992Z,0.80
2023-07-10T16:07:08.358Z,0.70
2023-07-10T16:10:14.188Z,0.70
2023-07-10T16:13:21.587Z,0.88
2023-07-10T16:16:25.264Z,0.70
2023-07-10T16:19:30.216Z,1.00
2023-07-10T16:22:32.581Z,0.77
2023-07-10T16:25:37.880Z,0.80
2023-07-10T16:28:40.047Z,1.08
2023-07-10T16:31:42.581Z,0.93
2023-07-10T16:34:45.952Z,1.02
2023-07-10T16:37:51.187Z,0.90
2023-07-10T16:40:55.982Z,0.90
2023-07-10T16:43:58.029Z,0.80
2023-07-10T16:47:04.626Z,0.90
2023-07-10T16:50:39.763Z,0.85
2023-07-10T16:53:42.976Z,0.80
2023-07-10T16:56:44.778Z,0.90
2023-07-10T16:59:46.646Z,1.00
2023-07-10T17:02:55.462Z,0.90
2023-07-10T17:06:00.430Z,0.95
2023-07-10T17:09:09.036Z,0.85
2023-07-10T17:12:11.505Z,1.15
2023-07-10T17:15:16.690Z,4.95
2023-07-10T17:18:20.239Z,1.80
2023-07-10T17:21:27.828Z,0.93
2023-07-10T17:24:34.696Z,1.13
2023-07-10T17:27:36.706Z,0.98
2023-07-10T17:30:38.885Z,1.20
2023-07-10T17:33:42.866Z,1.00
